createdAt,value
2022-11-12T00:02:25.045Z,102002.66
2022-11-12T00:05:29.435Z,102012.56
2022-11-12T00:08:32.279Z,101995.50
2022-11-12T00:11:35.138Z,101991.91
2022-11-12T00:14:37.894Z,101990.09
2022-11-12T00:17:41.123Z,101991.91
2022-11-12T00:20:45.948Z,101993.69
2022-11-12T00:23:48.622Z,101989.19
2022-11-12T00:26:51.995Z,101980.22
2022-11-12T00:29:54.704Z,101978.44
2022-11-12T00:32:57.543Z,101981.13
2022-11-12T00:36:01.756Z,101978.44
2022-11-12T00:39:05.404Z,101969.44
2022-11-12T00:42:08.509Z,101974.84
2022-11-12T00:45:11.744Z,101972.13
2022-11-12T00:48:14.473Z,101967.66
2022-11-12T00:51:18.911Z,101982.00
2022-11-12T00:54:21.855Z,101980.25
2022-11-12T00:57:24.598Z,101988.34
2022-11-12T01:00:28.226Z,102003.59
2022-11-12T01:03:30.984Z,101995.53
2022-11-12T01:06:35.230Z,102001.84
2022-11-12T01:09:38.068Z,102000.94
2022-11-12T01:12:41.283Z,101991.03
2022-11-12T01:15:44.380Z,101994.63
2022-11-12T01:18:48.013Z,101994.59
2022-11-12T01:21:52.342Z,101985.66
2022-11-12T01:24:55.420Z,101986.53
2022-11-12T01:27:59.647Z,101949.81
2022-11-12T01:31:11.775Z,101988.31
2022-11-12T01:34:14.555Z,101986.56
2022-11-12T01:37:19.030Z,101982.06
2022-11-12T01:40:22.122Z,101988.34
2022-11-12T01:43:24.871Z,101980.28
2022-11-12T01:46:31.094Z,101986.56
2022-11-12T01:49:40.352Z,101987.50
2022-11-12T01:52:49.184Z,101989.25
2022-11-12T01:55:53.250Z,101987.47
2022-11-12T01:58:59.956Z,101989.25
2022-11-12T02:02:03.638Z,101976.66
2022-11-12T02:05:10.880Z,101975.78
2022-11-12T02:08:15.020Z,101974.00
2022-11-12T02:11:19.811Z,101970.38
2022-11-12T02:14:22.074Z,101973.97
2022-11-12T02:17:25.431Z,101975.78
2022-11-12T02:20:28.179Z,101975.78
2022-11-12T02:23:32.825Z,101982.97
2022-11-12T02:26:38.093Z,101977.59
2022-11-12T02:29:46.683Z,101979.41
2022-11-12T02:32:49.424Z,101974.94
2022-11-12T02:35:52.521Z,101978.53
2022-11-12T02:38:56.657Z,101974.91
2022-11-12T02:41:59.613Z,101969.53
2022-11-12T02:45:02.664Z,101961.44
2022-11-12T02:48:05.523Z,101974.91
2022-11-12T02:51:08.958Z,101969.50
2022-11-12T02:54:12.963Z,101967.72
2022-11-12T02:57:15.982Z,101974.91
2022-11-12T03:00:19.585Z,101973.09
2022-11-12T03:03:22.373Z,101978.47
2022-11-12T03:06:25.380Z,101973.09
2022-11-12T03:09:29.397Z,101967.69
2022-11-12T03:12:32.554Z,101964.09
2022-11-12T03:15:35.481Z,101966.78
2022-11-12T03:18:38.689Z,101965.91
2022-11-12T03:21:41.667Z,101973.09
2022-11-12T03:24:45.736Z,101973.09
2022-11-12T03:27:48.775Z,101967.69
2022-11-12T03:30:51.577Z,101958.75
2022-11-12T03:33:54.326Z,101964.13
2022-11-12T03:36:57.261Z,101965.94
2022-11-12T03:40:01.257Z,101964.13
2022-11-12T03:43:04.329Z,101968.63
2022-11-12T03:46:07.074Z,101966.81
2022-11-12T03:49:09.825Z,101974.91
2022-11-12T03:52:12.487Z,101979.41
2022-11-12T03:55:18.850Z,101974.94
2022-11-12T03:58:21.555Z,101963.25
2022-11-12T04:01:24.386Z,101974.03
2022-11-12T04:04:47.147Z,101974.03
2022-11-12T04:08:07.934Z,101973.13
2022-11-12T04:11:15.556Z,101963.25
2022-11-12T04:14:18.590Z,101973.09
2022-11-12T04:17:38.793Z,101973.09
2022-11-12T04:20:59.196Z,101968.63
2022-11-12T04:24:02.292Z,101974.91
2022-11-12T04:27:06.482Z,101978.50
2022-11-12T04:30:19.492Z,101974.03
2022-11-12T04:33:22.806Z,101977.59
2022-11-12T04:36:25.510Z,101972.22
2022-11-12T04:39:28.537Z,101985.69
2022-11-12T04:42:49.954Z,101973.16
2022-11-12T04:45:54.827Z,101972.22
2022-11-12T04:48:57.801Z,101977.66
2022-11-12T04:52:06.219Z,101962.38
2022-11-12T04:55:10.080Z,101970.47
2022-11-12T04:58:14.357Z,101973.16
2022-11-12T05:01:17.517Z,101972.25
2022-11-12T05:04:20.585Z,101975.84
2022-11-12T05:07:23.361Z,101968.63
2022-11-12T05:10:26.347Z,101977.63
2022-11-12T05:13:30.722Z,101974.94
2022-11-12T05:16:33.785Z,101963.28
2022-11-12T05:19:36.787Z,101983.03
2022-11-12T05:22:47.730Z,101973.13
2022-11-12T05:25:53.301Z,101965.97
2022-11-12T05:28:57.618Z,101962.38
2022-11-12T05:32:00.349Z,101983.00
2022-11-12T05:35:03.812Z,101979.44
2022-11-12T05:38:06.500Z,101978.53
2022-11-12T05:41:09.502Z,101984.81
2022-11-12T05:44:13.988Z,101974.91
2022-11-12T05:47:16.715Z,101978.50
2022-11-12T05:50:19.674Z,101983.91
2022-11-12T05:53:22.564Z,101978.50
2022-11-12T05:56:25.568Z,101975.81
2022-11-12T05:59:29.623Z,101981.22
2022-11-12T06:02:32.739Z,101981.19
2022-11-12T06:05:36.187Z,101985.69
2022-11-12T06:08:39.248Z,102000.03
2022-11-12T06:11:41.988Z,101994.66
2022-11-12T06:14:46.899Z,101991.06
2022-11-12T06:17:49.825Z,101989.25
2022-11-12T06:21:06.455Z,101986.56
2022-11-12T06:24:09.542Z,101987.44
2022-11-12T06:27:12.215Z,101987.44
2022-11-12T06:30:16.368Z,102000.91
2022-11-12T06:33:19.343Z,101990.13
2022-11-12T06:36:22.158Z,101995.53
2022-11-12T06:39:25.192Z,101989.25
2022-11-12T06:42:28.251Z,101998.22
2022-11-12T06:45:32.790Z,101994.63
2022-11-12T06:48:36.066Z,102001.81
2022-11-12T06:51:39.733Z,102000.00
2022-11-12T06:54:42.586Z,101990.09
2022-11-12T06:57:45.304Z,101995.50
2022-11-12T07:00:50.017Z,102000.91
2022-11-12T07:03:53.865Z,101997.28
2022-11-12T07:06:56.661Z,101997.31
2022-11-12T07:09:59.383Z,101990.09
2022-11-12T07:13:02.416Z,101999.06
2022-11-12T07:16:09.058Z,101999.06
2022-11-12T07:19:11.805Z,101993.69
2022-11-12T07:22:14.925Z,101999.97
2022-11-12T07:25:17.951Z,101998.13
2022-11-12T07:28:21.569Z,101994.53
2022-11-12T07:31:26.822Z,101993.66
2022-11-12T07:34:29.567Z,102004.41
2022-11-12T07:37:32.290Z,101993.59
2022-11-12T07:40:35.353Z,101989.09
2022-11-12T07:43:39.388Z,101992.66
2022-11-12T07:46:43.936Z,101994.44
2022-11-12T07:49:46.716Z,101989.06
2022-11-12T07:52:49.450Z,101987.25
2022-11-12T07:55:56.477Z,101990.88
2022-11-12T07:58:59.470Z,101987.25
2022-11-12T08:02:03.859Z,101988.19
2022-11-12T08:05:14.505Z,101987.28
2022-11-12T08:08:20.745Z,101989.09
2022-11-12T08:11:24.597Z,101984.56
2022-11-12T08:14:27.490Z,101989.06
2022-11-12T08:17:31.559Z,101988.13
2022-11-12T08:20:34.569Z,101985.38
2022-11-12T08:23:37.256Z,101986.22
2022-11-12T08:26:40.388Z,102003.25
2022-11-12T08:29:43.094Z,101996.06
2022-11-12T08:32:47.126Z,102001.47
2022-11-12T08:35:50.541Z,102007.75
2022-11-12T08:38:54.415Z,102004.16
2022-11-12T08:41:57.438Z,102005.06
2022-11-12T08:45:00.091Z,101997.78
2022-11-12T08:48:07.365Z,102000.50
2022-11-12T08:51:10.059Z,102014.88
2022-11-12T08:54:12.723Z,101996.03
2022-11-12T08:57:15.402Z,102005.97
2022-11-12T09:00:19.274Z,102000.50
2022-11-12T09:03:25.311Z,102000.47
2022-11-12T09:06:27.983Z,101995.06
2022-11-12T09:09:30.799Z,101991.47
2022-11-12T09:12:33.479Z,101992.31
2022-11-12T09:15:38.235Z,101995.00
2022-11-12T09:18:43.242Z,101972.63
2022-11-12T09:21:46.008Z,101999.47
2022-11-12T09:24:49.062Z,101989.53
2022-11-12T09:27:51.829Z,101999.34
2022-11-12T09:30:56.181Z,102002.84
2022-11-12T09:34:00.237Z,101997.28
2022-11-12T09:37:03.769Z,101994.59
2022-11-12T09:40:07.932Z,101991.78
2022-11-12T09:43:16.848Z,101992.69
2022-11-12T09:46:36.005Z,101983.69
2022-11-12T09:49:45.124Z,101986.38
2022-11-12T09:52:50.886Z,101987.31
2022-11-12T09:55:54.715Z,101991.78
2022-11-12T09:58:57.518Z,101987.28
2022-11-12T10:02:05.893Z,101987.22
2022-11-12T10:05:26.522Z,101979.09
2022-11-12T10:08:42.896Z,101982.69
2022-11-12T10:12:21.665Z,101970.00
2022-11-12T10:16:06.768Z,101977.06
2022-11-12T10:19:25.976Z,101967.13
2022-11-12T10:22:44.904Z,101971.56
2022-11-12T10:25:50.277Z,101966.94
2022-11-12T10:28:59.551Z,101956.06
2022-11-12T10:32:03.637Z,101955.13
2022-11-12T10:35:06.661Z,101953.31
2022-11-12T10:38:18.658Z,101958.72
2022-11-12T10:41:25.030Z,101958.72
2022-11-12T10:44:28.152Z,101948.72
2022-11-12T10:47:33.837Z,101952.34
2022-11-12T10:50:41.542Z,101955.09
2022-11-12T10:53:46.186Z,101948.69
2022-11-12T10:56:55.130Z,101940.38
2022-11-12T11:00:10.336Z,101935.91
2022-11-12T11:03:20.575Z,101929.47
2022-11-12T11:06:27.055Z,101938.50
2022-11-12T11:09:31.973Z,101922.28
2022-11-12T11:12:35.692Z,101922.16
2022-11-12T11:15:39.133Z,101917.53
2022-11-12T11:18:44.352Z,101911.34
2022-11-12T11:22:07.328Z,101918.53
2022-11-12T11:25:30.233Z,101916.69
2022-11-12T11:28:42.190Z,101916.63
2022-11-12T11:31:55.632Z,101915.66
2022-11-12T11:35:13.682Z,101909.34
2022-11-12T11:38:26.851Z,101907.59
2022-11-12T11:41:51.644Z,101900.50
2022-11-12T11:45:03.965Z,101901.31
2022-11-12T11:48:17.572Z,101896.97
2022-11-12T11:51:37.389Z,101889.69
2022-11-12T11:55:00.394Z,101892.22
2022-11-12T11:58:18.569Z,101893.00
2022-11-12T12:01:27.903Z,101896.50
2022-11-12T12:04:46.832Z,101890.88
2022-11-12T12:07:55.342Z,101883.38
2022-11-12T12:11:09.270Z,101886.94
2022-11-12T12:14:29.129Z,101876.88
2022-11-12T12:17:47.028Z,101879.56
2022-11-12T12:20:59.027Z,101873.28
2022-11-12T12:24:05.280Z,101869.69
2022-11-12T12:27:12.789Z,101870.66
2022-11-12T12:30:20.851Z,101867.22
2022-11-12T12:33:33.190Z,101834.22
2022-11-12T12:36:39.087Z,101864.69
2022-11-12T12:39:51.019Z,101856.56
2022-11-12T12:42:58.756Z,101854.75
2022-11-12T12:46:03.812Z,101856.31
2022-11-12T12:49:12.075Z,101844.47
2022-11-12T12:52:15.263Z,101843.63
2022-11-12T12:55:40.481Z,101838.22
2022-11-12T12:58:45.167Z,101827.16
2022-11-12T13:01:56.582Z,101831.78
2022-11-12T13:04:59.775Z,101809.25
2022-11-12T13:08:06.974Z,101820.19
2022-11-12T13:11:10.185Z,101820.25
2022-11-12T13:14:50.420Z,101822.16
2022-11-12T13:17:54.584Z,101810.53
2022-11-12T13:21:13.641Z,101814.19
2022-11-12T13:24:16.529Z,101810.56
2022-11-12T13:28:05.915Z,101805.22
2022-11-12T13:31:26.498Z,101816.91
2022-11-12T13:34:34.756Z,101791.75
2022-11-12T13:37:44.806Z,101808.00
2022-11-12T13:40:52.033Z,101813.53
2022-11-12T13:43:55.254Z,101809.06
2022-11-12T13:47:01.601Z,101807.25
2022-11-12T13:50:09.554Z,101802.75
2022-11-12T13:53:22.329Z,101806.44
2022-11-12T13:56:29.379Z,101804.66
2022-11-12T13:59:32.158Z,101805.44
2022-11-12T14:02:41.353Z,101802.75
2022-11-12T14:05:50.147Z,101793.72
2022-11-12T14:09:15.006Z,101792.69
2022-11-12T14:12:36.990Z,101801.66
2022-11-12T14:15:57.270Z,101798.13
2022-11-12T14:19:15.784Z,101799.19
2022-11-12T14:22:22.522Z,101801.97
2022-11-12T14:25:27.852Z,101798.34
2022-11-12T14:28:32.179Z,101795.66
2022-11-12T14:31:34.901Z,101797.56
2022-11-12T14:34:37.780Z,101795.81
2022-11-12T14:37:49.820Z,101796.84
2022-11-12T14:40:55.199Z,101795.16
2022-11-12T14:44:12.973Z,101795.25
2022-11-12T14:47:19.462Z,101796.22
2022-11-12T14:50:27.030Z,101788.19
2022-11-12T14:53:38.997Z,101789.13
2022-11-12T14:56:47.568Z,101786.50
2022-11-12T14:59:50.840Z,101782.97
2022-11-12T15:02:59.174Z,101781.25
2022-11-12T15:06:11.115Z,101779.38
2022-11-12T15:09:21.799Z,101740.19
2022-11-12T15:12:27.739Z,101774.97
2022-11-12T15:15:30.842Z,101775.06
2022-11-12T15:18:35.409Z,101769.69
2022-11-12T15:21:38.222Z,101769.72
2022-11-12T15:24:44.962Z,101760.72
2022-11-12T15:27:47.989Z,101763.47
2022-11-12T15:31:02.467Z,101769.81
2022-11-12T15:34:45.343Z,101769.81
2022-11-12T15:37:48.467Z,101760.78
2022-11-12T15:40:57.660Z,101758.09
2022-11-12T15:44:01.913Z,101769.81
2022-11-12T15:47:05.638Z,101765.34
2022-11-12T15:50:17.100Z,101766.31
2022-11-12T15:53:19.960Z,101769.00
2022-11-12T15:56:24.435Z,101757.28
2022-11-12T15:59:27.448Z,101747.38
2022-11-12T16:02:31.174Z,101748.25
2022-11-12T16:05:33.900Z,101739.28
2022-11-12T16:08:36.699Z,101750.09
2022-11-12T16:11:41.084Z,101733.91
2022-11-12T16:14:44.065Z,101739.31
2022-11-12T16:17:48.061Z,101737.50
2022-11-12T16:20:50.943Z,101736.63
2022-11-12T16:23:53.701Z,101735.72
2022-11-12T16:27:02.172Z,101727.63
2022-11-12T16:30:07.404Z,101742.00
2022-11-12T16:33:12.650Z,101739.31
2022-11-12T16:36:16.773Z,101735.72
2022-11-12T16:39:19.847Z,101736.63
2022-11-12T16:42:24.430Z,101739.38
2022-11-12T16:45:34.865Z,101738.53
2022-11-12T16:48:38.431Z,101737.66
2022-11-12T16:51:41.217Z,101734.97
2022-11-12T16:54:44.044Z,101741.31
2022-11-12T16:57:48.180Z,101734.13
2022-11-12T17:00:51.173Z,101726.94
2022-11-12T17:03:55.480Z,101729.63
2022-11-12T17:06:58.503Z,101719.75
2022-11-12T17:10:02.011Z,101728.84
2022-11-12T17:13:06.073Z,101723.47
2022-11-12T17:16:09.231Z,101705.59
2022-11-12T17:19:12.101Z,101731.53
2022-11-12T17:22:14.883Z,101725.34
2022-11-12T17:25:17.630Z,101729.88
2022-11-12T17:28:21.667Z,101726.28
2022-11-12T17:31:24.650Z,101719.16
2022-11-12T17:34:27.315Z,101715.50
2022-11-12T17:37:31.650Z,101711.06
2022-11-12T17:40:34.599Z,101720.97
2022-11-12T17:43:39.326Z,101712.00
2022-11-12T17:46:42.536Z,101717.41
2022-11-12T17:49:45.477Z,101709.31
2022-11-12T17:52:48.643Z,101712.91
2022-11-12T17:55:57.206Z,101716.47
2022-11-12T17:59:02.062Z,101716.47
2022-11-12T18:02:04.838Z,101711.00
2022-11-12T18:05:08.156Z,101678.00
2022-11-12T18:08:10.985Z,101700.22
2022-11-12T18:11:15.838Z,101691.38
2022-11-12T18:14:20.011Z,101704.66
2022-11-12T18:17:22.886Z,101704.66
2022-11-12T18:20:25.719Z,101704.66
2022-11-12T18:23:28.691Z,101708.28
2022-11-12T18:26:31.721Z,101704.69
2022-11-12T18:29:36.610Z,101706.56
2022-11-12T18:32:41.299Z,101693.97
2022-11-12T18:35:44.088Z,101701.16
2022-11-12T18:38:49.954Z,101690.34
2022-11-12T18:41:52.940Z,101665.34
2022-11-12T18:44:57.187Z,101683.97
2022-11-12T18:47:59.972Z,101685.78
2022-11-12T18:51:07.751Z,101691.22
2022-11-12T18:54:10.616Z,101683.97
2022-11-12T18:57:13.540Z,101683.06
2022-11-12T19:00:18.787Z,101677.69
2022-11-12T19:03:21.606Z,101673.19
2022-11-12T19:06:25.415Z,101685.75
2022-11-12T19:09:28.192Z,101667.78
2022-11-12T19:12:30.940Z,101675.84
2022-11-12T19:15:36.116Z,101674.06
2022-11-12T19:18:40.099Z,101666.88
2022-11-12T19:21:43.136Z,101672.25
2022-11-12T19:24:45.880Z,101665.03
2022-11-12T19:27:48.677Z,101665.03
2022-11-12T19:30:52.740Z,101669.56
2022-11-12T19:33:55.835Z,101667.75
2022-11-12T19:37:26.773Z,101668.66
2022-11-12T19:40:21.411Z,101663.25
2022-11-12T19:43:25.051Z,101655.16
2022-11-12T19:46:30.889Z,101656.03
2022-11-12T19:49:34.107Z,101659.66
2022-11-12T19:52:36.801Z,101659.63
2022-11-12T19:55:40.084Z,101657.88
2022-11-12T19:58:45.843Z,101648.00
2022-11-12T20:01:50.175Z,101648.97
2022-11-12T20:04:52.882Z,101644.53
2022-11-12T20:07:55.508Z,101648.13
2022-11-12T20:10:58.891Z,101642.69
2022-11-12T20:14:01.961Z,101641.81
2022-11-12T20:17:06.289Z,101645.38
2022-11-12T20:20:10.352Z,101641.81
2022-11-12T20:23:13.483Z,101639.09
2022-11-12T20:26:17.001Z,101630.19
2022-11-12T20:29:19.748Z,101637.41
2022-11-12T20:32:24.431Z,101634.63
2022-11-12T20:35:27.174Z,101625.59
2022-11-12T20:38:30.584Z,101624.78
2022-11-12T20:41:34.789Z,101628.41
2022-11-12T20:44:37.525Z,101628.44
2022-11-12T20:47:41.858Z,101623.06
2022-11-12T20:51:09.305Z,101604.09
2022-11-12T20:54:07.478Z,101618.47
2022-11-12T20:57:10.202Z,101614.84
2022-11-12T21:00:17.765Z,101623.88
2022-11-12T21:03:24.138Z,101617.63
2022-11-12T21:06:29.157Z,101612.25
2022-11-12T21:09:32.088Z,101614.03
2022-11-12T21:12:34.936Z,101601.47
2022-11-12T21:15:37.961Z,101607.72
2022-11-12T21:18:42.461Z,101608.72
2022-11-12T21:21:45.382Z,101605.03
2022-11-12T21:24:48.333Z,101605.16
2022-11-12T21:27:51.036Z,101590.72
2022-11-12T21:30:53.718Z,101588.97
2022-11-12T21:34:00.575Z,101593.41
2022-11-12T21:37:03.344Z,101600.56
2022-11-12T21:40:07.316Z,101599.72
2022-11-12T21:43:10.043Z,101593.41
2022-11-12T21:46:16.212Z,101593.31
2022-11-12T21:49:20.536Z,101596.91
2022-11-12T21:52:23.298Z,101599.75
2022-11-12T21:55:26.027Z,101593.44
2022-11-12T21:58:29.325Z,101590.72
2022-11-12T22:01:34.543Z,101566.63
2022-11-12T22:04:38.708Z,101583.53
2022-11-12T22:07:41.519Z,101574.56
2022-11-12T22:10:44.533Z,101572.72
2022-11-12T22:13:47.563Z,101576.31
2022-11-12T22:16:50.327Z,101578.97
2022-11-12T22:19:54.394Z,101578.03
2022-11-12T22:22:57.111Z,101572.72
2022-11-12T22:26:00.578Z,101573.63
2022-11-12T22:29:03.726Z,101572.72
2022-11-12T22:32:06.524Z,101570.06
2022-11-12T22:35:10.942Z,101574.47
2022-11-12T22:38:14.175Z,101578.03
2022-11-12T22:41:18.893Z,101570.78
2022-11-12T22:44:21.921Z,101566.31
2022-11-12T22:47:24.645Z,101569.03
2022-11-12T22:50:28.814Z,101560.97
2022-11-12T22:53:32.044Z,101561.84
2022-11-12T22:56:35.305Z,101551.00
2022-11-12T22:59:38.010Z,101550.16
2022-11-12T23:02:44.816Z,101548.34
2022-11-12T23:05:57.420Z,101548.50
2022-11-12T23:09:02.224Z,101537.81
2022-11-12T23:12:05.670Z,101540.59
2022-11-12T23:15:09.502Z,101535.25
2022-11-12T23:18:12.585Z,101539.63
2022-11-12T23:21:18.756Z,101527.03
2022-11-12T23:24:21.982Z,101493.22
2022-11-12T23:27:24.934Z,101520.88
2022-11-12T23:30:27.780Z,101522.66
2022-11-12T23:33:30.523Z,101510.97
2022-11-12T23:36:34.564Z,101510.03
2022-11-12T23:39:37.539Z,101515.47
2022-11-12T23:42:40.163Z,101510.09
2022-11-12T23:45:43.227Z,101499.28
2022-11-12T23:48:45.967Z,101499.41
2022-11-12T23:51:50.205Z,101503.00
2022-11-12T23:54:52.900Z,101493.19
2022-11-12T23:57:55.898Z,101486.88
